Time,TemperatureF,DewpointF,PressureIn,WindDirection,WindDirectionDegrees,WindSpeedMPH,WindSpeedGustMPH,Humidity,HourlyPrecipIn,Conditions,Clouds,dailyrainin,SoftwareType,DateUTC
2013-10-19 00:22:00,47.0,46.0,-100.00,NW,320,11.0,14.0,97,-99.99,,,-99.99,,2013-10-19 05:22:00,
2013-10-19 00:52:00,46.0,45.0,-100.00,NNW,335,8.0,13.0,97,-99.99,,,-99.99,,2013-10-19 05:52:00,
2013-10-19 01:22:00,46.0,45.0,-100.00,WNW,295,8.0,11.0,97,-99.99,,,-99.99,,2013-10-19 06:22:00,
2013-10-19 01:52:00,45.0,45.0,-100.00,NW,325,9.0,14.0,98,-99.99,,,-99.99,,2013-10-19 06:52:00,
2013-10-19 02:22:00,45.0,45.0,-100.00,NW,305,8.0,11.0,99,-99.99,,,-99.99,,2013-10-19 07:22:00,
2013-10-19 02:53:00,45.0,44.0,-100.00,WNW,295,7.0,11.0,99,-99.99,,,-99.99,,2013-10-19 07:53:00,
2013-10-19 03:22:00,45.0,45.0,-100.00,WNW,285,9.0,11.0,99,-99.99,,,-99.99,,2013-10-19 08:22:00,
2013-10-19 03:52:00,45.0,45.0,-100.00,West,275,4.0,11.0,99,-99.99,,,-99.99,,2013-10-19 08:52:00,
2013-10-19 04:21:00,44.0,44.0,-100.00,West,275,7.0,12.0,99,-99.99,,,-99.99,,2013-10-19 09:21:00,
2013-10-19 04:31:00,45.0,44.0,-100.00,WNW,285,10.0,13.0,99,-99.99,,,-99.99,,2013-10-19 09:31:00,
2013-10-19 04:54:00,45.0,44.0,-100.00,WNW,290,11.0,14.0,99,-99.99,,,-99.99,,2013-10-19 09:54:00,
2013-10-19 05:13:00,45.0,44.0,-100.00,WNW,285,10.0,13.0,99,-99.99,,,-99.99,,2013-10-19 10:13:00,
2013-10-19 05:23:00,45.0,44.0,-100.00,WNW,285,10.0,13.0,99,-99.99,,,-99.99,,2013-10-19 10:23:00,
2013-10-19 06:52:00,44.0,43.0,-100.00,WNW,285,16.0,19.0,99,-99.99,,,-99.99,,2013-10-19 11:52:00,
2013-10-19 07:22:00,43.0,43.0,-100.00,WNW,285,14.0,19.0,99,-99.99,,,-99.99,,2013-10-19 12:22:00,
2013-10-19 07:52:00,43.0,42.0,-100.00,WNW,290,16.0,20.0,99,-99.99,,,-99.99,,2013-10-19 12:52:00,
2013-10-19 08:22:00,42.0,42.0,-100.00,WNW,285,14.0,19.0,99,-99.99,,,-99.99,,2013-10-19 13:22:00,
2013-10-19 08:52:00,42.0,42.0,-100.00,WNW,285,13.0,18.0,99,-99.99,,,-99.99,,2013-10-19 13:52:00,
2013-10-19 09:21:00,42.0,42.0,-100.00,WNW,285,15.0,21.0,99,-99.99,,,-99.99,,2013-10-19 14:21:00,
2013-10-19 09:52:00,44.0,42.0,-100.00,West,280,13.0,18.0,95,-99.99,,,-99.99,,2013-10-19 14:52:00,
2013-10-19 10:22:00,46.0,42.0,-100.00,West,265,11.0,19.0,85,-99.99,,,-99.99,,2013-10-19 15:22:00,
2013-10-19 10:55:00,46.0,40.0,-100.00,WNW,285,14.0,19.0,81,-99.99,,,-99.99,,2013-10-19 15:55:00,
2013-10-19 11:24:00,46.0,40.0,-100.00,WNW,285,16.0,21.0,79,-99.99,,,-99.99,,2013-10-19 16:24:00,
2013-10-19 11:53:00,48.0,40.0,-100.00,WNW,285,14.0,21.0,75,-99.99,,,-99.99,,2013-10-19 16:53:00,
2013-10-19 12:22:00,50.0,40.0,-100.00,West,280,11.0,19.0,69,-99.99,,,-99.99,,2013-10-19 17:22:00,
2013-10-19 12:52:00,51.0,40.0,-100.00,WNW,295,14.0,18.0,65,-99.99,,,-99.99,,2013-10-19 17:52:00,
2013-10-19 13:01:00,53.0,38.0,-100.00,WNW,290,15.0,25.0,57,-99.99,,,-99.99,,2013-10-19 18:01:00,
2013-10-19 13:22:00,53.0,40.0,-100.00,WNW,290,18.0,23.0,62,-99.99,,,-99.99,,2013-10-19 18:22:00,
2013-10-19 13:42:00,53.0,38.0,-100.00,WNW,290,15.0,25.0,57,-99.99,,,-99.99,,2013-10-19 18:42:00,
2013-10-19 13:52:00,53.0,38.0,-100.00,WNW,290,15.0,25.0,57,-99.99,,,-99.99,,2013-10-19 18:52:00,
2013-10-19 15:52:00,54.0,35.0,-100.00,WNW,285,23.0,29.0,48,-99.99,,,-99.99,,2013-10-19 20:52:00,
2013-10-19 16:22:00,55.0,37.0,-100.00,West,280,20.0,28.0,49,-99.99,,,-99.99,,2013-10-19 21:22:00,
2013-10-19 16:54:00,55.0,35.0,-100.00,WNW,300,23.0,29.0,47,-99.99,,,-99.99,,2013-10-19 21:54:00,
2013-10-19 17:24:00,55.0,34.0,-100.00,NW,310,21.0,26.0,45,-99.99,,,-99.99,,2013-10-19 22:24:00,
2013-10-19 17:53:00,55.0,35.0,-100.00,WNW,290,19.0,26.0,46,-99.99,,,-99.99,,2013-10-19 22:53:00,
2013-10-19 18:22:00,56.0,37.0,-100.00,WNW,285,14.0,24.0,49,-99.99,,,-99.99,,2013-10-19 23:22:00,
2013-10-19 18:53:00,55.0,36.0,-100.00,WNW,290,15.0,21.0,49,-99.99,,,-99.99,,2013-10-19 23:53:00,
2013-10-19 19:22:00,55.0,37.0,-100.00,West,270,10.0,15.0,52,-99.99,,,-99.99,,2013-10-20 00:22:00,
2013-10-19 19:52:00,54.0,37.0,-100.00,WNW,285,14.0,18.0,51,-99.99,,,-99.99,,2013-10-20 00:52:00,
2013-10-19 20:22:00,54.0,38.0,-100.00,West,265,8.0,12.0,54,-99.99,,,-99.99,,2013-10-20 01:22:00,
2013-10-19 20:52:00,53.0,37.0,-100.00,West,270,6.0,9.0,55,-99.99,,,-99.99,,2013-10-20 01:52:00,
2013-10-19 21:22:00,53.0,37.0,-100.00,West,275,7.0,12.0,56,-99.99,,,-99.99,,2013-10-20 02:22:00,
2013-10-19 21:52:00,53.0,39.0,-100.00,West,265,7.0,14.0,59,-99.99,,,-99.99,,2013-10-20 02:52:00,
2013-10-19 22:22:00,53.0,39.0,-100.00,SW,235,5.0,11.0,60,-99.99,,,-99.99,,2013-10-20 03:22:00,
2013-10-19 22:55:00,53.0,40.0,-100.00,WSW,255,8.0,15.0,61,-99.99,,,-99.99,,2013-10-20 03:55:00,
2013-10-19 23:02:00,-999.0,-99.9,-100.00,West,265,11.0,17.0,-999,-99.99,,,-99.99,,2013-10-20 04:02:00,
2013-10-19 23:24:00,53.0,40.0,-100.00,West,270,13.0,19.0,63,-99.99,,,-99.99,,2013-10-20 04:24:00,
2013-10-19 23:54:00,53.0,41.0,-100.00,West,280,14.0,24.0,65,-99.99,,,-99.99,,2013-10-20 04:54:00,